Time;durP1;ratioP1;P1;durP2;ratioP2;P2;SDS_P1;SDS_P2;PMS_P1;PMS_P2;Temp;Humidity;BMP_temperature;BMP_pressure;BME280_temperature;BME280_humidity;BME280_pressure;Samples;Min_cycle;Max_cycle;Signal;HPM_P1;HPM_P2
2022/11/07 00:02:00;;;;;;;56.13;29.07;;;6.70;99.90;;;;;;4145047;28;20034;-63
2022/11/07 00:04:01;;;;;;;50.20;26.07;;;6.70;99.90;;;;;;4144161;28;20080;-64
2022/11/07 00:06:03;;;;;;;48.23;25.63;;;6.70;99.90;;;;;;4145361;28;20026;-62
2022/11/07 00:08:04;;;;;;;46.83;26.23;;;6.60;99.90;;;;;;4143194;28;20100;-63
2022/11/07 00:10:06;;;;;;;53.03;26.87;;;6.60;99.90;;;;;;4144748;28;20112;-63
2022/11/07 00:12:07;;;;;;;49.17;26.50;;;6.60;99.90;;;;;;4143171;28;20046;-63
2022/11/07 00:14:11;;;;;;;47.13;28.13;;;6.60;99.90;;;;;;4144947;28;20088;-63
2022/11/07 00:16:12;;;;;;;52.57;27.23;;;6.50;99.90;;;;;;4144064;28;20034;-62
2022/11/07 00:18:13;;;;;;;56.33;27.57;;;6.50;99.90;;;;;;4145154;28;20093;-63
2022/11/07 00:20:14;;;;;;;52.43;25.47;;;6.50;99.90;;;;;;4153152;28;20038;-62
2022/11/07 00:22:15;;;;;;;50.70;26.53;;;6.50;99.90;;;;;;4145104;28;20037;-63
2022/11/07 00:24:17;;;;;;;47.67;25.57;;;6.50;99.90;;;;;;4143641;28;20367;-63
2022/11/07 00:26:18;;;;;;;45.40;25.37;;;6.50;99.90;;;;;;4143609;28;20034;-64
2022/11/07 00:28:19;;;;;;;46.10;24.73;;;6.50;99.90;;;;;;4157577;28;20037;-62
2022/11/07 00:30:21;;;;;;;49.27;27.07;;;6.60;99.90;;;;;;4157948;28;20050;-63
2022/11/07 00:32:22;;;;;;;47.83;26.20;;;6.60;99.90;;;;;;4179956;28;20033;-63
2022/11/07 00:34:23;;;;;;;46.73;26.50;;;6.50;99.90;;;;;;4179566;28;20078;-62
2022/11/07 00:36:27;;;;;;;45.20;23.50;;;6.50;99.90;;;;;;4180513;28;20075;-61
2022/11/07 00:38:29;;;;;;;47.17;24.20;;;6.50;99.90;;;;;;4179420;28;20056;-63
2022/11/07 00:40:30;;;;;;;41.83;23.90;;;6.50;99.90;;;;;;4157041;28;20042;-63
2022/11/07 00:42:31;;;;;;;44.00;23.50;;;6.50;99.90;;;;;;4162935;28;20084;-63
2022/11/07 00:44:32;;;;;;;43.33;23.90;;;6.40;99.90;;;;;;4156326;28;20080;-62
2022/11/07 00:46:33;;;;;;;38.93;22.47;;;6.40;99.90;;;;;;4146020;28;20038;-62
2022/11/07 00:48:35;;;;;;;46.20;24.10;;;6.40;99.90;;;;;;4146922;28;20046;-63
2022/11/07 00:50:36;;;;;;;50.83;25.87;;;6.40;99.90;;;;;;4147215;28;20046;-62
2022/11/07 00:52:37;;;;;;;40.03;22.80;;;6.50;99.90;;;;;;4146727;28;20091;-64
2022/11/07 00:54:40;;;;;;;42.77;24.07;;;6.50;99.90;;;;;;4147187;28;20029;-63
2022/11/07 00:56:41;;;;;;;46.20;26.03;;;6.60;99.90;;;;;;4146202;28;20022;-63
2022/11/07 00:58:43;;;;;;;47.20;24.63;;;6.50;99.90;;;;;;4147350;28;20544;-63
2022/11/07 01:00:44;;;;;;;50.10;27.23;;;6.50;99.90;;;;;;4146333;28;20514;-62
2022/11/07 01:05:09;;;;;;;50.90;24.53;;;6.40;99.90;;;;;;4147284;28;20429;-62
2022/11/07 01:05:11;;;;;;;45.07;24.60;;;6.40;99.90;;;;;;4145967;28;20034;-62
2022/11/07 01:07:12;;;;;;;52.13;26.23;;;6.30;99.90;;;;;;4161838;28;20029;-63
2022/11/07 01:09:17;;;;;;;44.87;25.90;;;6.30;99.90;;;;;;4162410;28;20060;-62
2022/11/07 01:11:18;;;;;;;45.43;24.87;;;6.30;99.90;;;;;;4161937;28;20033;-62
2022/11/07 01:13:19;;;;;;;46.87;25.00;;;6.30;99.90;;;;;;4162337;28;20037;-62
2022/11/07 01:15:20;;;;;;;43.63;24.87;;;6.40;99.90;;;;;;4163546;28;20095;-62
2022/11/07 01:17:21;;;;;;;45.73;26.07;;;6.40;99.90;;;;;;4160888;28;20096;-64
2022/11/07 01:19:23;;;;;;;48.03;25.50;;;6.50;99.90;;;;;;4162404;28;20083;-64
2022/11/07 01:21:24;;;;;;;50.60;25.67;;;6.50;99.90;;;;;;4160918;28;20067;-61
2022/11/07 01:23:25;;;;;;;45.00;26.23;;;6.50;99.90;;;;;;4152491;28;20498;-61
2022/11/07 01:25:26;;;;;;;43.80;26.13;;;6.50;99.90;;;;;;4146807;28;20022;-63
2022/11/07 01:27:27;;;;;;;47.17;25.20;;;6.50;99.90;;;;;;4145597;28;20042;-61
2022/11/07 01:29:28;;;;;;;48.67;26.20;;;6.50;99.90;;;;;;4146461;28;20045;-62
2022/11/07 01:31:32;;;;;;;47.10;25.87;;;6.50;99.90;;;;;;4144985;28;20092;-63
2022/11/07 01:33:34;;;;;;;42.60;25.07;;;6.60;99.90;;;;;;4146588;28;20030;-63
2022/11/07 01:35:36;;;;;;;46.93;26.03;;;6.60;99.90;;;;;;4128196;28;20526;-62
2022/11/07 01:37:38;;;;;;;51.10;28.43;;;6.60;99.90;;;;;;4148097;28;20030;-62
2022/11/07 01:39:39;;;;;;;47.30;25.73;;;6.60;99.90;;;;;;4148485;28;20438;-62
2022/11/07 01:41:41;;;;;;;47.20;25.40;;;6.60;99.90;;;;;;4145630;28;20080;-63
2022/11/07 01:44:00;;;;;;;42.60;24.93;;;6.60;99.90;;;;;;4144918;28;20026;-63
2022/11/07 01:46:01;;;;;;;63.43;26.57;;;6.60;99.90;;;;;;4128627;28;20050;-63
2022/11/07 01:48:02;;;;;;;44.73;24.07;;;6.60;99.90;;;;;;4127785;28;20027;-63
2022/11/07 01:50:06;;;;;;;48.57;25.97;;;6.60;99.90;;;;;;4146455;28;20045;-63
2022/11/07 01:52:12;;;;;;;45.03;24.73;;;6.60;99.90;;;;;;4146031;28;20030;-62
2022/11/07 01:54:21;;;;;;;44.97;25.90;;;6.60;99.90;;;;;;4146589;28;20686;-63
2022/11/07 01:56:26;;;;;;;43.47;25.83;;;6.60;99.90;;;;;;4145497;28;20775;-62
2022/11/07 01:58:27;;;;;;;43.63;24.83;;;6.60;99.90;;;;;;4146595;28;20100;-63
2022/11/07 02:00:30;;;;;;;43.53;24.23;;;6.60;99.90;;;;;;4145321;28;20088;-63
2022/11/07 02:02:32;;;;;;;43.83;25.00;;;6.60;99.90;;;;;;4145700;28;20061;-63
2022/11/07 02:04:34;;;;;;;46.77;23.77;;;6.70;99.90;;;;;;4145346;28;20470;-62
2022/11/07 02:06:45;;;;;;;44.13;23.57;;;6.70;99.90;;;;;;4146005;28;20037;-63
2022/11/07 02:08:49;;;;;;;43.37;22.93;;;6.70;99.90;;;;;;4145446;28;20034;-63
2022/11/07 02:10:51;;;;;;;40.27;23.10;;;6.80;99.90;;;;;;4154959;28;20620;-61
2022/11/07 02:12:56;;;;;;;38.90;20.97;;;6.80;99.90;;;;;;4161055;28;20041;-63
2022/11/07 02:14:57;;;;;;;35.27;21.13;;;6.90;99.90;;;;;;4159803;28;20087;-62
2022/11/07 02:16:59;;;;;;;41.47;22.50;;;6.80;99.90;;;;;;4161296;28;20555;-61
2022/11/07 02:19:03;;;;;;;40.03;22.23;;;6.90;99.90;;;;;;4161438;28;20033;-63
2022/11/07 02:21:16;;;;;;;42.20;21.73;;;6.90;99.90;;;;;;4162136;28;20025;-62
2022/11/07 02:23:26;;;;;;;36.17;22.00;;;7.00;99.90;;;;;;4159665;28;20041;-63
2022/11/07 02:25:29;;;;;;;39.23;21.47;;;7.00;99.90;;;;;;4157139;28;20037;-63
2022/11/07 02:27:32;;;;;;;41.60;23.40;;;7.10;99.90;;;;;;4153800;28;20055;-61
2022/11/07 02:29:36;;;;;;;38.43;22.17;;;7.10;99.90;;;;;;4161596;28;20042;-62
2022/11/07 02:31:37;;;;;;;39.77;21.43;;;7.10;99.90;;;;;;4161175;28;20029;-63
2022/11/07 02:33:38;;;;;;;35.50;21.00;;;7.20;99.90;;;;;;4162198;28;20025;-63
2022/11/07 02:35:44;;;;;;;41.97;21.97;;;7.20;99.90;;;;;;4161163;28;20037;-63
2022/11/07 02:37:45;;;;;;;37.47;21.70;;;7.20;99.90;;;;;;4143662;28;20045;-62
2022/11/07 02:39:47;;;;;;;38.83;22.30;;;7.20;99.90;;;;;;4144697;28;20041;-62
2022/11/07 02:41:49;;;;;;;37.73;22.40;;;7.20;99.90;;;;;;4145874;28;20503;-62
2022/11/07 02:44:00;;;;;;;43.33;25.70;;;7.10;99.90;;;;;;4152588;28;20658;-61
2022/11/07 02:46:06;;;;;;;43.53;24.47;;;7.00;99.90;;;;;;4162161;28;20030;-62
2022/11/07 02:48:07;;;;;;;41.80;25.37;;;6.90;99.90;;;;;;4151023;28;20462;-62
2022/11/07 02:50:11;;;;;;;48.03;26.90;;;6.80;99.90;;;;;;4144869;28;20104;-62
2022/11/07 02:52:12;;;;;;;43.37;26.13;;;6.70;99.90;;;;;;4144589;28;20042;-62
2022/11/07 02:54:13;;;;;;;52.27;28.63;;;6.70;99.90;;;;;;4145318;28;20520;-62
2022/11/07 02:56:15;;;;;;;47.23;27.50;;;6.60;99.90;;;;;;4144883;28;20022;-62
2022/11/07 02:58:16;;;;;;;47.00;27.63;;;6.50;99.90;;;;;;4145127;28;20034;-61
2022/11/07 03:00:17;;;;;;;52.00;28.73;;;6.50;99.90;;;;;;4146603;28;20030;-62
2022/11/07 03:02:19;;;;;;;47.33;26.30;;;6.50;99.90;;;;;;4160930;28;20470;-61
2022/11/07 03:04:20;;;;;;;45.17;25.77;;;6.50;99.90;;;;;;4161166;28;20115;-63
2022/11/07 03:06:23;;;;;;;48.27;27.10;;;6.50;99.90;;;;;;4160445;28;20555;-62
2022/11/07 03:08:24;;;;;;;50.40;26.87;;;6.50;99.90;;;;;;4161868;28;20115;-62
2022/11/07 03:10:25;;;;;;;42.93;26.43;;;6.60;99.90;;;;;;4160223;28;20041;-62
2022/11/07 03:12:26;;;;;;;44.83;25.67;;;6.60;99.90;;;;;;4161397;28;20045;-62
2022/11/07 03:14:27;;;;;;;42.47;25.23;;;6.70;99.90;;;;;;4160690;28;20425;-62
2022/11/07 03:16:28;;;;;;;40.40;25.20;;;6.80;99.90;;;;;;4161836;28;20063;-62
2022/11/07 03:18:30;;;;;;;46.90;25.00;;;6.80;99.90;;;;;;4160676;28;20425;-62
2022/11/07 03:20:31;;;;;;;43.87;24.70;;;6.80;99.90;;;;;;4161514;28;20049;-63
2022/11/07 03:22:32;;;;;;;47.23;26.23;;;6.80;99.90;;;;;;4158643;28;20505;-62
2022/11/07 03:24:33;;;;;;;39.83;24.23;;;6.90;99.90;;;;;;4161260;28;20103;-62
2022/11/07 03:26:34;;;;;;;47.57;25.97;;;6.90;99.90;;;;;;4160856;28;20025;-62
2022/11/07 03:28:35;;;;;;;49.10;26.33;;;6.90;99.90;;;;;;4157829;28;20091;-63
2022/11/07 03:30:36;;;;;;;47.07;27.13;;;6.90;99.90;;;;;;4156732;28;20033;-63
2022/11/07 03:32:37;;;;;;;44.00;25.07;;;6.90;99.90;;;;;;4143649;28;20041;-63
2022/11/07 03:34:39;;;;;;;42.50;24.60;;;6.90;99.90;;;;;;4145058;28;20415;-63
2022/11/07 03:36:40;;;;;;;53.10;27.97;;;7.00;99.90;;;;;;4148889;28;20029;-62
2022/11/07 03:38:41;;;;;;;51.83;27.67;;;7.00;99.90;;;;;;4160825;28;20053;-63
2022/11/07 03:40:45;;;;;;;75.53;47.90;;;7.00;99.90;;;;;;4159219;28;20045;-63
2022/11/07 03:42:46;;;;;;;59.13;35.33;;;7.00;99.90;;;;;;4160586;28;20076;-63
2022/11/07 03:44:47;;;;;;;53.00;27.03;;;6.90;99.90;;;;;;4159323;28;20041;-63
2022/11/07 03:46:48;;;;;;;48.03;26.90;;;6.90;99.90;;;;;;4161267;28;20029;-63
2022/11/07 03:48:49;;;;;;;44.13;27.10;;;6.90;99.90;;;;;;4142207;28;20609;-62
2022/11/07 03:50:50;;;;;;;44.27;26.17;;;6.80;99.90;;;;;;4161452;28;20050;-63
2022/11/07 03:52:51;;;;;;;48.57;27.10;;;6.80;99.90;;;;;;4160848;28;20474;-62
2022/11/07 03:54:53;;;;;;;46.63;27.00;;;6.80;99.90;;;;;;4160599;28;20042;-63
2022/11/07 03:56:54;;;;;;;52.37;28.07;;;6.80;99.90;;;;;;4155264;28;20434;-63
2022/11/07 03:58:55;;;;;;;52.87;28.70;;;6.80;99.90;;;;;;4144629;28;20030;-63
2022/11/07 04:00:56;;;;;;;50.33;28.17;;;6.90;99.90;;;;;;4143882;28;20081;-64
2022/11/07 04:02:57;;;;;;;47.37;29.30;;;6.90;99.90;;;;;;4143524;28;20041;-63
2022/11/07 04:04:59;;;;;;;51.10;27.20;;;6.90;99.90;;;;;;4157153;28;20433;-63
2022/11/07 04:07:00;;;;;;;45.90;26.03;;;6.90;99.90;;;;;;4162276;28;20148;-62
2022/11/07 04:09:01;;;;;;;43.90;25.40;;;6.90;99.90;;;;;;4163792;28;20386;-63
2022/11/07 04:11:02;;;;;;;47.37;25.63;;;6.90;99.90;;;;;;4162063;28;20076;-63
2022/11/07 04:17:47;;;;;;;47.43;26.33;;;6.80;99.90;;;;;;4164190;28;20440;-62
2022/11/07 04:19:56;;;;;;;47.83;26.07;;;6.70;99.90;;;;;;4162270;28;20091;-62
2022/11/07 04:21:57;;;;;;;47.30;26.13;;;6.70;99.90;;;;;;4145226;28;20034;-62
2022/11/07 04:23:58;;;;;;;49.37;25.80;;;6.70;99.90;;;;;;4155911;28;20034;-62
2022/11/07 04:28:19;;;;;;;44.37;26.73;;;6.60;99.90;;;;;;4146659;28;20092;-62
2022/11/07 04:30:25;;;;;;;55.33;28.33;;;6.60;99.90;;;;;;4149510;28;20592;-62
2022/11/07 04:32:26;;;;;;;47.77;27.67;;;6.60;99.90;;;;;;4151575;28;20046;-62
2022/11/07 04:34:27;;;;;;;50.43;27.33;;;6.60;99.90;;;;;;4148811;28;20167;-62
2022/11/07 04:36:28;;;;;;;50.07;27.67;;;6.60;99.90;;;;;;4146465;28;20050;-62
2022/11/07 04:38:30;;;;;;;50.97;28.63;;;6.60;99.90;;;;;;4147598;28;20437;-62
2022/11/07 04:40:31;;;;;;;55.60;28.70;;;6.50;99.90;;;;;;4147532;28;20439;-62
2022/11/07 04:42:32;;;;;;;54.93;29.33;;;6.50;99.90;;;;;;4147520;28;20490;-61
2022/11/07 04:44:33;;;;;;;50.10;28.77;;;6.50;99.90;;;;;;4146440;28;20088;-62
2022/11/07 04:46:34;;;;;;;52.10;30.27;;;6.40;99.90;;;;;;4148339;28;20030;-63
2022/11/07 04:48:35;;;;;;;52.37;28.73;;;6.40;99.90;;;;;;4163017;28;20061;-63
2022/11/07 04:50:36;;;;;;;55.63;30.77;;;6.40;99.90;;;;;;4162213;28;20497;-63
2022/11/07 04:52:38;;;;;;;56.90;31.63;;;6.40;99.90;;;;;;4163749;28;20033;-62
2022/11/07 04:54:39;;;;;;;56.93;31.20;;;6.40;99.90;;;;;;4159627;28;20452;-63
2022/11/07 04:56:40;;;;;;;56.03;30.40;;;6.40;99.90;;;;;;4154702;28;20083;-62
2022/11/07 04:58:41;;;;;;;61.50;32.23;;;6.40;99.90;;;;;;4161584;28;20033;-62
2022/11/07 05:00:43;;;;;;;57.97;31.27;;;6.40;99.90;;;;;;4153296;28;20096;-61
2022/11/07 05:02:44;;;;;;;59.67;32.63;;;6.40;99.90;;;;;;4148069;28;20161;-61
2022/11/07 05:04:45;;;;;;;64.03;32.90;;;6.50;99.90;;;;;;4146029;28;20999;-62
2022/11/07 05:06:47;;;;;;;55.07;31.43;;;6.50;99.90;;;;;;4145641;28;20092;-62
2022/11/07 05:08:48;;;;;;;52.53;29.27;;;6.50;99.90;;;;;;4150301;28;20038;-62
2022/11/07 05:10:49;;;;;;;54.83;29.03;;;6.50;99.90;;;;;;4145495;28;20037;-62
2022/11/07 05:12:51;;;;;;;53.67;30.00;;;6.60;99.90;;;;;;4146219;28;20111;-64
2022/11/07 05:14:52;;;;;;;55.70;29.80;;;6.60;99.90;;;;;;4145675;28;20348;-63
2022/11/07 05:16:54;;;;;;;54.97;29.80;;;6.60;99.90;;;;;;4145318;28;20034;-61
2022/11/07 05:18:55;;;;;;;57.20;29.93;;;6.70;99.90;;;;;;4145498;28;20470;-63
2022/11/07 05:20:56;;;;;;;57.90;30.33;;;6.70;99.90;;;;;;4145307;28;20149;-64
2022/11/07 05:23:16;;;;;;;58.10;30.00;;;6.70;99.90;;;;;;4161334;28;20033;-63
2022/11/07 05:25:17;;;;;;;;;;;6.60;99.90;;;;;;4160075;28;20037;-64
2022/11/07 05:27:19;;;;;;;;;;;6.60;99.90;;;;;;4162609;28;19909;-63
2022/11/07 05:29:20;;;;;;;58.37;29.13;;;6.60;99.90;;;;;;4160995;28;19913;-63
2022/11/07 05:31:21;;;;;;;50.63;27.80;;;6.60;99.90;;;;;;4162082;28;20486;-63
2022/11/07 05:33:22;;;;;;;53.67;29.67;;;6.60;99.90;;;;;;4159300;28;20041;-63
2022/11/07 05:35:24;;;;;;;55.43;30.10;;;6.70;99.90;;;;;;4162525;28;20470;-64
2022/11/07 05:37:25;;;;;;;58.60;31.27;;;6.70;99.90;;;;;;4141303;28;20202;-63
2022/11/07 05:39:26;;;;;;;62.13;33.53;;;6.80;99.90;;;;;;4160865;28;20045;-63
2022/11/07 05:41:27;;;;;;;51.93;30.50;;;6.80;99.90;;;;;;4155019;28;20041;-63
2022/11/07 05:43:28;;;;;;;54.00;29.63;;;6.90;99.90;;;;;;4156691;28;20115;-63
2022/11/07 05:45:30;;;;;;;53.10;30.40;;;6.90;99.90;;;;;;4158923;28;20448;-62
2022/11/07 05:47:31;;;;;;;60.13;30.70;;;6.80;99.90;;;;;;4162357;28;20474;-63
2022/11/07 05:49:32;;;;;;;60.00;30.97;;;6.80;99.90;;;;;;4153260;28;20103;-62
2022/11/07 05:51:34;;;;;;;59.53;31.13;;;6.80;99.90;;;;;;4155763;28;20107;-63
2022/11/07 05:53:35;;;;;;;52.70;29.03;;;6.80;99.90;;;;;;4156454;28;20049;-64
2022/11/07 05:55:36;;;;;;;51.53;28.83;;;6.90;99.90;;;;;;4162020;28;20099;-62
2022/11/07 05:57:37;;;;;;;53.40;29.93;;;6.90;99.90;;;;;;4154768;28;20049;-63
2022/11/07 05:59:38;;;;;;;56.13;29.03;;;7.00;99.90;;;;;;4157441;28;20560;-63
2022/11/07 06:01:40;;;;;;;57.93;32.40;;;7.00;99.90;;;;;;4154197;28;20092;-64
2022/11/07 06:03:41;;;;;;;61.77;31.37;;;7.00;99.90;;;;;;4144347;28;20453;-63
2022/11/07 06:05:42;;;;;;;55.47;30.67;;;7.00;99.90;;;;;;4146343;28;20033;-62
2022/11/07 06:07:43;;;;;;;63.17;32.00;;;7.00;99.90;;;;;;4145003;28;20026;-64
2022/11/07 06:09:44;;;;;;;59.33;30.40;;;7.00;99.90;;;;;;4147003;28;20555;-62
2022/11/07 06:11:46;;;;;;;61.80;31.97;;;7.00;99.90;;;;;;4144683;28;20111;-62
2022/11/07 06:13:47;;;;;;;62.03;31.97;;;6.90;99.90;;;;;;4140457;28;20080;-62
2022/11/07 06:15:48;;;;;;;65.87;31.57;;;7.00;99.90;;;;;;4176839;28;20045;-62
2022/11/07 06:17:49;;;;;;;63.83;33.37;;;7.00;99.90;;;;;;4177743;28;20036;-63
2022/11/07 06:19:50;;;;;;;64.37;33.93;;;7.00;99.90;;;;;;4176788;28;20017;-61
2022/11/07 06:21:51;;;;;;;73.63;34.30;;;7.00;99.90;;;;;;4178348;28;20439;-63
2022/11/07 06:23:52;;;;;;;67.60;33.07;;;7.00;99.90;;;;;;4178062;28;20017;-61
2022/11/07 06:25:53;;;;;;;67.37;35.50;;;7.00;99.90;;;;;;4177764;28;20082;-63
2022/11/07 06:28:03;;;;;;;61.87;33.10;;;7.00;99.90;;;;;;4177152;28;20025;-62
2022/11/07 06:30:05;;;;;;;59.53;34.42;;;7.00;99.90;;;;;;4177554;28;20079;-63
2022/11/07 06:32:06;;;;;;;57.00;30.97;;;7.00;99.90;;;;;;4159152;28;20049;-63
2022/11/07 06:34:07;;;;;;;59.73;34.10;;;7.10;99.90;;;;;;4175400;28;20386;-63
2022/11/07 06:36:11;;;;;;;64.40;34.90;;;7.10;99.90;;;;;;4177445;28;20040;-62
2022/11/07 06:38:13;;;;;;;61.47;31.87;;;7.20;99.90;;;;;;4176273;28;20041;-64
2022/11/07 06:40:14;;;;;;;63.67;32.53;;;7.30;99.90;;;;;;4177488;28;20041;-63
2022/11/07 06:42:15;;;;;;;59.37;32.23;;;7.40;99.90;;;;;;4176795;28;20881;-63
2022/11/07 06:44:17;;;;;;;60.97;32.87;;;7.50;99.90;;;;;;4177709;28;20516;-65
2022/11/07 06:46:21;;;;;;;67.50;35.57;;;7.50;99.90;;;;;;4177029;28;20033;-63
2022/11/07 06:48:22;;;;;;;61.83;33.80;;;7.50;99.90;;;;;;4177035;28;20053;-64
2022/11/07 06:50:23;;;;;;;59.63;33.20;;;7.60;99.90;;;;;;4176801;28;20029;-62
2022/11/07 06:52:24;;;;;;;72.47;38.17;;;7.60;99.90;;;;;;4177832;28;20041;-65
2022/11/07 06:54:25;;;;;;;60.97;32.33;;;7.60;99.90;;;;;;4176454;28;20041;-63
2022/11/07 06:56:26;;;;;;;58.30;32.97;;;7.70;99.90;;;;;;4178084;28;20079;-64
2022/11/07 06:58:28;;;;;;;61.97;32.07;;;7.70;99.90;;;;;;4176555;28;20029;-62
2022/11/07 07:00:32;;;;;;;57.97;31.47;;;7.80;99.90;;;;;;4177088;28;20104;-63
2022/11/07 07:02:33;;;;;;;61.13;33.07;;;7.80;99.90;;;;;;4177373;28;20078;-63
2022/11/07 07:04:34;;;;;;;63.70;34.83;;;7.80;99.90;;;;;;4177085;28;20028;-64
2022/11/07 07:06:36;;;;;;;62.33;32.53;;;7.90;99.90;;;;;;4176575;28;20083;-63
2022/11/07 07:08:38;;;;;;;66.27;30.47;;;7.90;99.90;;;;;;4158081;28;20045;-64
2022/11/07 07:10:42;;;;;;;54.57;30.57;;;8.00;99.90;;;;;;4177882;28;20040;-63
2022/11/07 07:12:43;;;;;;;63.80;31.97;;;8.10;99.90;;;;;;4176012;28;20094;-61
2022/11/07 07:14:45;;;;;;;59.77;29.93;;;8.10;99.90;;;;;;4176921;28;20682;-62
2022/11/07 07:16:46;;;;;;;56.07;30.50;;;8.20;99.90;;;;;;4175766;28;20041;-63
2022/11/07 07:18:47;;;;;;;55.90;31.07;;;8.20;99.90;;;;;;4159344;28;20054;-64
2022/11/07 07:20:49;;;;;;;55.30;29.43;;;8.30;99.90;;;;;;4176733;28;20555;-64
2022/11/07 07:22:50;;;;;;;54.20;31.33;;;8.30;99.90;;;;;;4177947;28;20033;-64
2022/11/07 07:24:52;;;;;;;67.20;33.57;;;8.30;99.90;;;;;;4176646;28;20082;-63
2022/11/07 07:26:53;;;;;;;62.00;32.13;;;8.30;99.90;;;;;;4177448;28;20071;-64
2022/11/07 07:28:55;;;;;;;67.43;34.47;;;8.40;99.90;;;;;;4175413;28;20095;-62
2022/11/07 07:31:16;;;;;;;60.67;35.33;;;8.30;99.90;;;;;;4176273;28;20778;-63
2022/11/07 07:33:18;;;;;;;80.10;40.67;;;8.30;99.90;;;;;;4176819;28;20381;-62
2022/11/07 07:35:20;;;;;;;83.40;37.47;;;8.30;99.90;;;;;;4177072;28;20083;-64
2022/11/07 07:37:21;;;;;;;84.07;40.73;;;8.30;99.90;;;;;;4176956;28;20111;-62
2022/11/07 07:39:23;;;;;;;81.67;41.10;;;8.40;99.90;;;;;;4177055;28;20083;-62
2022/11/07 07:41:24;;;;;;;80.73;39.90;;;8.40;99.90;;;;;;4179014;28;20466;-64
2022/11/07 07:43:27;;;;;;;79.30;38.57;;;8.40;99.90;;;;;;4179297;28;20102;-63
2022/11/07 07:45:28;;;;;;;79.40;39.13;;;8.50;99.90;;;;;;4180825;28;20033;-63
2022/11/07 07:47:29;;;;;;;96.40;37.87;;;8.60;99.90;;;;;;4161280;28;20038;-62
2022/11/07 07:49:30;;;;;;;75.17;38.73;;;8.60;99.90;;;;;;4179669;28;20048;-62
2022/11/07 07:51:31;;;;;;;73.90;35.53;;;8.70;99.90;;;;;;4179652;28;20037;-63
2022/11/07 07:53:32;;;;;;;80.47;37.70;;;8.70;99.90;;;;;;4181266;28;20090;-63
2022/11/07 07:55:34;;;;;;;83.20;38.43;;;8.90;99.90;;;;;;4178771;28;20041;-63
2022/11/07 07:57:40;;;;;;;62.73;36.23;;;8.90;99.90;;;;;;4179946;28;20132;-64
2022/11/07 07:59:41;;;;;;;69.90;36.23;;;9.00;99.90;;;;;;4179569;28;20060;-63
2022/11/07 08:01:42;;;;;;;75.93;38.37;;;9.00;99.90;;;;;;4180142;28;20044;-63
2022/11/07 08:03:43;;;;;;;75.30;39.17;;;9.00;99.90;;;;;;4179550;28;20481;-63
2022/11/07 08:05:57;;;;;;;77.27;37.53;;;9.00;99.90;;;;;;4179502;28;20041;-63
2022/11/07 08:07:58;;;;;;;85.93;39.17;;;9.10;99.90;;;;;;4178879;28;20461;-62
2022/11/07 08:09:59;;;;;;;74.17;39.30;;;9.30;99.90;;;;;;4180444;28;20013;-63
2022/11/07 08:12:05;;;;;;;86.13;40.90;;;9.30;99.90;;;;;;4178876;28;20131;-62
2022/11/07 08:14:06;;;;;;;74.73;39.07;;;9.50;99.90;;;;;;4180142;28;20032;-62
2022/11/07 08:16:08;;;;;;;77.03;40.13;;;9.60;99.90;;;;;;4179799;28;20534;-61
2022/11/07 08:18:09;;;;;;;84.43;42.00;;;9.80;99.90;;;;;;4178570;28;20489;-61
2022/11/07 08:20:13;;;;;;;90.10;42.10;;;9.90;99.90;;;;;;4179244;28;20045;-63
2022/11/07 08:22:14;;;;;;;79.77;42.00;;;10.00;99.90;;;;;;4179241;28;20102;-63
2022/11/07 08:24:15;;;;;;;85.73;42.60;;;10.00;99.90;;;;;;4179902;28;20041;-61
2022/11/07 08:26:16;;;;;;;85.80;41.03;;;10.10;99.90;;;;;;4178429;28;20103;-63
2022/11/07 08:28:18;;;;;;;83.47;39.77;;;10.10;99.90;;;;;;4180213;28;20552;-64
2022/11/07 08:30:19;;;;;;;76.17;37.50;;;10.20;99.90;;;;;;4179201;28;20037;-64
2022/11/07 08:32:21;;;;;;;80.57;39.03;;;10.20;99.90;;;;;;4179122;28;20048;-63
2022/11/07 08:34:22;;;;;;;79.60;41.07;;;10.30;99.90;;;;;;4178919;28;20041;-64
2022/11/07 08:36:23;;;;;;;79.67;40.30;;;10.30;99.90;;;;;;4180158;28;20033;-63
2022/11/07 08:38:26;;;;;;;82.27;39.80;;;10.40;99.90;;;;;;4178117;28;20036;-65
2022/11/07 08:40:27;;;;;;;75.10;38.33;;;10.40;99.90;;;;;;4179580;28;20041;-65
2022/11/07 08:42:28;;;;;;;81.43;42.27;;;10.40;99.90;;;;;;4179274;28;20531;-64
2022/11/07 08:44:33;;;;;;;62.27;34.13;;;10.40;99.90;;;;;;4179180;28;20037;-64
2022/11/07 08:46:34;;;;;;;66.47;33.30;;;10.40;99.90;;;;;;4178465;28;20098;-64
2022/11/07 08:48:36;;;;;;;53.90;30.83;;;10.30;99.90;;;;;;4178621;28;20097;-64
2022/11/07 08:50:37;;;;;;;56.53;30.47;;;10.30;99.90;;;;;;4179665;28;20175;-63
2022/11/07 08:52:38;;;;;;;50.90;28.40;;;10.40;99.90;;;;;;4177597;28;20489;-63
2022/11/07 08:54:39;;;;;;;60.67;31.73;;;10.40;99.90;;;;;;4179535;28;20041;-63
2022/11/07 08:56:40;;;;;;;54.73;29.83;;;10.40;99.90;;;;;;4178088;28;20036;-62
2022/11/07 08:58:41;;;;;;;59.90;30.97;;;10.40;99.90;;;;;;4178963;28;20045;-62
2022/11/07 09:00:43;;;;;;;53.40;29.97;;;10.30;99.90;;;;;;4178459;28;20442;-64
2022/11/07 09:02:45;;;;;;;55.80;29.70;;;10.30;99.90;;;;;;4179377;28;20021;-63
2022/11/07 09:04:46;;;;;;;61.23;30.33;;;10.30;99.90;;;;;;4178485;28;20370;-63
2022/11/07 09:06:47;;;;;;;53.50;29.63;;;10.20;99.90;;;;;;4179483;28;20094;-63
2022/11/07 09:08:48;;;;;;;57.93;31.97;;;10.20;99.90;;;;;;4177821;28;20547;-64
2022/11/07 09:10:49;;;;;;;55.50;29.97;;;10.20;99.90;;;;;;4178488;28;20033;-63
2022/11/07 09:12:51;;;;;;;68.37;31.93;;;10.20;99.90;;;;;;4177633;28;20048;-63
2022/11/07 09:14:52;;;;;;;58.27;31.70;;;10.30;99.90;;;;;;4179234;28;20029;-63
2022/11/07 09:16:53;;;;;;;54.90;30.43;;;10.30;99.90;;;;;;4178641;28;20106;-64
2022/11/07 09:18:54;;;;;;;62.83;33.60;;;10.40;99.90;;;;;;4178731;28;20586;-64
2022/11/07 09:20:56;;;;;;;61.53;32.60;;;10.40;99.90;;;;;;4178307;28;20048;-64
2022/11/07 09:22:58;;;;;;;69.83;33.13;;;10.40;99.90;;;;;;4178398;28;20087;-62
2022/11/07 09:24:59;;;;;;;58.27;32.03;;;10.40;99.90;;;;;;4178906;28;20041;-63
2022/11/07 09:27:01;;;;;;;63.30;31.20;;;10.40;99.90;;;;;;4177304;28;20041;-63
2022/11/07 09:29:02;;;;;;;72.43;31.90;;;10.50;99.90;;;;;;4178713;28;20090;-63
2022/11/07 09:31:04;;;;;;;58.17;29.87;;;10.50;99.90;;;;;;4177445;28;20072;-62
2022/11/07 09:33:05;;;;;;;57.87;29.37;;;10.60;99.90;;;;;;4178980;28;20028;-64
2022/11/07 09:35:07;;;;;;;56.73;30.30;;;10.60;99.90;;;;;;4178098;28;20033;-64
2022/11/07 09:37:08;;;;;;;56.30;29.90;;;10.70;99.90;;;;;;4178044;28;20087;-63
2022/11/07 09:39:09;;;;;;;58.97;30.97;;;10.70;99.90;;;;;;4178120;28;20028;-62
2022/11/07 09:41:13;;;;;;;72.27;31.70;;;10.80;99.90;;;;;;4178552;28;20033;-64
2022/11/07 09:43:19;;;;;;;56.73;30.20;;;10.80;99.90;;;;;;4177491;28;20087;-63
2022/11/07 09:45:21;;;;;;;68.47;31.13;;;10.70;99.90;;;;;;4179011;28;20041;-62
2022/11/07 09:47:44;;;;;;;57.13;30.70;;;10.70;99.90;;;;;;4177737;28;20037;-63
2022/11/07 09:49:59;;;;;;;58.70;29.87;;;10.80;99.90;;;;;;4179010;28;20057;-63
2022/11/07 09:52:04;;;;;;;56.57;30.50;;;10.90;99.90;;;;;;4177808;28;20455;-62
2022/11/07 09:54:13;;;;;;;59.73;30.30;;;10.90;99.90;;;;;;4178358;28;20041;-62
2022/11/07 09:56:14;;;;;;;53.57;28.77;;;10.90;99.90;;;;;;4177800;28;20075;-63
2022/11/07 09:58:35;;;;;;;60.40;30.43;;;10.90;99.90;;;;;;4178592;28;20051;-62
2022/11/07 10:00:36;;;;;;;50.35;28.17;;;10.90;99.90;;;;;;4177687;28;20070;-62
2022/11/07 10:02:42;;;;;;;56.10;29.30;;;10.90;99.90;;;;;;4178335;28;20090;-64
2022/11/07 10:04:45;;;;;;;48.47;27.27;;;11.00;99.90;;;;;;4176078;28;20032;-63
2022/11/07 10:06:52;;;;;;;51.17;27.60;;;11.10;99.90;;;;;;4176213;28;20049;-63
2022/11/07 10:09:17;;;;;;;53.47;28.33;;;11.10;99.90;;;;;;4177151;28;20430;-63
2022/11/07 10:11:29;;;;;;;56.90;29.97;;;11.10;99.90;;;;;;4177733;28;20578;-63
2022/11/07 10:13:51;;;;;;;46.97;25.90;;;11.00;99.90;;;;;;4177340;28;20392;-63
2022/11/07 10:16:18;;;;;;;49.50;27.97;;;11.00;99.90;;;;;;4178452;28;20477;-64
2022/11/07 10:18:52;;;;;;;44.47;25.60;;;11.10;99.90;;;;;;4176621;28;20036;-63
2022/11/07 10:21:16;;;;;;;44.40;25.97;;;11.00;99.90;;;;;;4178554;28;20307;-63
2022/11/07 10:23:29;;;;;;;45.50;25.43;;;11.00;99.90;;;;;;4176524;28;20542;-63
2022/11/07 10:25:36;;;;;;;52.03;27.50;;;11.00;99.90;;;;;;4178673;28;20033;-64
2022/11/07 10:27:38;;;;;;;47.43;27.23;;;11.10;99.90;;;;;;4176460;28;20044;-64
2022/11/07 10:29:51;;;;;;;52.33;27.87;;;11.10;99.90;;;;;;4178246;28;20025;-63
2022/11/07 10:32:17;;;;;;;52.90;30.37;;;11.10;99.90;;;;;;4176080;28;20056;-64
2022/11/07 10:34:33;;;;;;;52.90;27.60;;;11.20;99.90;;;;;;4177868;28;20366;-63
2022/11/07 10:36:34;;;;;;;52.30;27.13;;;11.20;99.90;;;;;;4177526;28;20036;-63
2022/11/07 10:38:40;;;;;;;48.70;26.53;;;11.20;99.90;;;;;;4177168;28;20041;-64